sensor_id;sensor_type;location;lat;lon;timestamp;temperature;humidity
49441;DHT22;35317;51.978;6.296;2023-07-28T00:03:46;18.90;99.90
49441;DHT22;35317;51.978;6.296;2023-07-28T00:08:47;18.90;99.90
49441;DHT22;35317;51.978;6.296;2023-07-28T00:13:48;18.90;99.90
49441;DHT22;35317;51.978;6.296;2023-07-28T00:18:49;18.90;99.90
49441;DHT22;35317;51.978;6.296;2023-07-28T00:23:49;18.90;99.90
49441;DHT22;35317;51.978;6.296;2023-07-28T00:28:50;18.90;99.90
49441;DHT22;35317;51.978;6.296;2023-07-28T00:33:51;18.90;99.90
49441;DHT22;35317;51.978;6.296;2023-07-28T00:38:52;18.90;99.90
49441;DHT22;35317;51.978;6.296;2023-07-28T00:43:52;18.90;99.90
49441;DHT22;35317;51.978;6.296;2023-07-28T00:48:53;19.00;99.90
49441;DHT22;35317;51.978;6.296;2023-07-28T00:53:55;19.00;99.90
49441;DHT22;35317;51.978;6.296;2023-07-28T00:58:56;19.00;99.90
49441;DHT22;35317;51.978;6.296;2023-07-28T01:03:57;19.00;99.90
49441;DHT22;35317;51.978;6.296;2023-07-28T01:09:06;19.00;99.90
49441;DHT22;35317;51.978;6.296;2023-07-28T01:14:10;19.00;99.90
49441;DHT22;35317;51.978;6.296;2023-07-28T01:19:12;19.00;99.90
49441;DHT22;35317;51.978;6.296;2023-07-28T01:24:21;18.90;99.90
49441;DHT22;35317;51.978;6.296;2023-07-28T01:29:29;18.90;99.90
49441;DHT22;35317;51.978;6.296;2023-07-28T01:34:30;18.90;99.90
49441;DHT22;35317;51.978;6.296;2023-07-28T01:39:31;18.90;99.90
49441;DHT22;35317;51.978;6.296;2023-07-28T01:44:31;18.90;99.90
49441;DHT22;35317;51.978;6.296;2023-07-28T01:49:32;18.90;99.90
49441;DHT22;35317;51.978;6.296;2023-07-28T01:54:33;18.90;99.90
49441;DHT22;35317;51.978;6.296;2023-07-28T01:59:34;18.90;99.90
49441;DHT22;35317;51.978;6.296;2023-07-28T02:04:34;18.90;99.90
49441;DHT22;35317;51.978;6.296;2023-07-28T02:09:35;18.90;99.90
49441;DHT22;35317;51.978;6.296;2023-07-28T02:14:36;18.90;99.90
49441;DHT22;35317;51.978;6.296;2023-07-28T02:19:37;18.90;99.90
49441;DHT22;35317;51.978;6.296;2023-07-28T02:24:37;18.90;99.90
49441;DHT22;35317;51.978;6.296;2023-07-28T02:29:38;18.90;99.90
49441;DHT22;35317;51.978;6.296;2023-07-28T02:34:39;19.00;99.90
49441;DHT22;35317;51.978;6.296;2023-07-28T02:39:40;18.90;99.90
49441;DHT22;35317;51.978;6.296;2023-07-28T02:44:41;19.00;99.90
49441;DHT22;35317;51.978;6.296;2023-07-28T02:49:41;19.00;99.90
49441;DHT22;35317;51.978;6.296;2023-07-28T02:54:43;19.00;99.90
49441;DHT22;35317;51.978;6.296;2023-07-28T02:59:44;19.00;99.90
49441;DHT22;35317;51.978;6.296;2023-07-28T03:04:45;19.00;99.90
49441;DHT22;35317;51.978;6.296;2023-07-28T03:09:45;19.00;99.90
49441;DHT22;35317;51.978;6.296;2023-07-28T03:14:46;19.00;99.90
49441;DHT22;35317;51.978;6.296;2023-07-28T03:19:47;19.00;99.90
49441;DHT22;35317;51.978;6.296;2023-07-28T03:24:48;19.00;99.90
49441;DHT22;35317;51.978;6.296;2023-07-28T03:29:50;19.00;99.90
49441;DHT22;35317;51.978;6.296;2023-07-28T03:34:51;19.00;99.90
49441;DHT22;35317;51.978;6.296;2023-07-28T03:39:52;19.00;99.90
49441;DHT22;35317;51.978;6.296;2023-07-28T03:44:52;19.00;99.90
49441;DHT22;35317;51.978;6.296;2023-07-28T03:49:53;19.00;99.90
49441;DHT22;35317;51.978;6.296;2023-07-28T03:54:54;19.00;99.90
49441;DHT22;35317;51.978;6.296;2023-07-28T03:59:55;19.00;99.90
49441;DHT22;35317;51.978;6.296;2023-07-28T04:04:56;19.00;99.90
49441;DHT22;35317;51.978;6.296;2023-07-28T04:09:57;19.00;99.90
49441;DHT22;35317;51.978;6.296;2023-07-28T04:14:58;19.00;99.90
49441;DHT22;35317;51.978;6.296;2023-07-28T04:19:58;19.00;99.90
49441;DHT22;35317;51.978;6.296;2023-07-28T04:24:59;19.00;99.90
49441;DHT22;35317;51.978;6.296;2023-07-28T04:30:00;19.00;99.90
49441;DHT22;35317;51.978;6.296;2023-07-28T04:35:01;19.10;99.90
49441;DHT22;35317;51.978;6.296;2023-07-28T04:40:02;19.10;99.90
49441;DHT22;35317;51.978;6.296;2023-07-28T04:45:04;19.00;99.90
49441;DHT22;35317;51.978;6.296;2023-07-28T04:50:06;19.00;99.90
49441;DHT22;35317;51.978;6.296;2023-07-28T04:55:07;19.10;99.90
49441;DHT22;35317;51.978;6.296;2023-07-28T05:00:08;19.00;99.90
49441;DHT22;35317;51.978;6.296;2023-07-28T05:05:11;19.10;99.90
49441;DHT22;35317;51.978;6.296;2023-07-28T05:10:12;19.10;99.90
49441;DHT22;35317;51.978;6.296;2023-07-28T05:15:15;19.20;99.90
49441;DHT22;35317;51.978;6.296;2023-07-28T05:20:15;19.20;99.90
49441;DHT22;35317;51.978;6.296;2023-07-28T05:25:16;19.20;99.90
49441;DHT22;35317;51.978;6.296;2023-07-28T05:30:17;19.20;99.90
49441;DHT22;35317;51.978;6.296;2023-07-28T05:35:18;19.20;99.90
49441;DHT22;35317;51.978;6.296;2023-07-28T05:40:20;19.30;99.90
49441;DHT22;35317;51.978;6.296;2023-07-28T05:45:21;19.30;99.90
49441;DHT22;35317;51.978;6.296;2023-07-28T05:50:22;19.30;99.90
49441;DHT22;35317;51.978;6.296;2023-07-28T05:55:23;19.40;99.90
49441;DHT22;35317;51.978;6.296;2023-07-28T06:00:23;19.40;99.90
49441;DHT22;35317;51.978;6.296;2023-07-28T06:05:24;19.40;99.90
49441;DHT22;35317;51.978;6.296;2023-07-28T06:10:25;19.40;99.90
49441;DHT22;35317;51.978;6.296;2023-07-28T06:15:25;19.40;99.90
49441;DHT22;35317;51.978;6.296;2023-07-28T06:20:26;19.40;99.90
49441;DHT22;35317;51.978;6.296;2023-07-28T06:25:27;19.40;99.90
49441;DHT22;35317;51.978;6.296;2023-07-28T06:30:28;19.40;99.90
49441;DHT22;35317;51.978;6.296;2023-07-28T06:35:29;19.40;99.90
49441;DHT22;35317;51.978;6.296;2023-07-28T06:40:29;19.50;99.90
49441;DHT22;35317;51.978;6.296;2023-07-28T06:45:30;19.50;99.90
49441;DHT22;35317;51.978;6.296;2023-07-28T06:50:31;19.60;99.90
49441;DHT22;35317;51.978;6.296;2023-07-28T06:55:32;19.60;99.90
49441;DHT22;35317;51.978;6.296;2023-07-28T07:00:33;19.60;99.90
49441;DHT22;35317;51.978;6.296;2023-07-28T07:05:34;19.70;99.90
49441;DHT22;35317;51.978;6.296;2023-07-28T07:10:34;19.70;99.90
49441;DHT22;35317;51.978;6.296;2023-07-28T07:15:35;19.80;99.90
49441;DHT22;35317;51.978;6.296;2023-07-28T07:20:37;19.80;99.90
49441;DHT22;35317;51.978;6.296;2023-07-28T07:25:39;19.90;99.90
49441;DHT22;35317;51.978;6.296;2023-07-28T07:30:40;19.90;99.90
49441;DHT22;35317;51.978;6.296;2023-07-28T07:35:41;20.00;99.90
49441;DHT22;35317;51.978;6.296;2023-07-28T07:40:42;19.90;99.90
49441;DHT22;35317;51.978;6.296;2023-07-28T07:45:42;20.00;99.90
49441;DHT22;35317;51.978;6.296;2023-07-28T07:50:44;20.00;99.90
49441;DHT22;35317;51.978;6.296;2023-07-28T07:55:45;20.00;99.90
49441;DHT22;35317;51.978;6.296;2023-07-28T08:00:45;20.10;99.90
49441;DHT22;35317;51.978;6.296;2023-07-28T08:05:46;20.10;99.90
49441;DHT22;35317;51.978;6.296;2023-07-28T08:10:49;20.20;99.90
49441;DHT22;35317;51.978;6.296;2023-07-28T08:15:50;20.30;99.90
49441;DHT22;35317;51.978;6.296;2023-07-28T08:20:51;20.60;99.90
49441;DHT22;35317;51.978;6.296;2023-07-28T08:25:52;20.70;99.90
49441;DHT22;35317;51.978;6.296;2023-07-28T08:30:56;20.90;99.90
49441;DHT22;35317;51.978;6.296;2023-07-28T08:35:58;21.00;99.90
49441;DHT22;35317;51.978;6.296;2023-07-28T08:40:59;21.00;99.90
49441;DHT22;35317;51.978;6.296;2023-07-28T08:46:00;21.00;99.90
49441;DHT22;35317;51.978;6.296;2023-07-28T08:51:02;21.00;99.90
49441;DHT22;35317;51.978;6.296;2023-07-28T08:56:06;21.10;99.90
49441;DHT22;35317;51.978;6.296;2023-07-28T09:01:07;21.30;99.90
49441;DHT22;35317;51.978;6.296;2023-07-28T09:06:08;21.40;99.90
49441;DHT22;35317;51.978;6.296;2023-07-28T09:11:13;21.30;99.90
49441;DHT22;35317;51.978;6.296;2023-07-28T09:16:18;21.40;99.90
49441;DHT22;35317;51.978;6.296;2023-07-28T09:27:49;21.70;99.90
49441;DHT22;35317;51.978;6.296;2023-07-28T09:32:53;21.80;99.90
49441;DHT22;35317;51.978;6.296;2023-07-28T09:37:55;21.70;99.90
49441;DHT22;35317;51.978;6.296;2023-07-28T09:42:56;21.70;99.90
49441;DHT22;35317;51.978;6.296;2023-07-28T09:47:58;21.70;99.90
49441;DHT22;35317;51.978;6.296;2023-07-28T09:53:03;21.90;99.90
49441;DHT22;35317;51.978;6.296;2023-07-28T09:58:04;22.10;99.90
49441;DHT22;35317;51.978;6.296;2023-07-28T10:03:07;22.30;99.90
49441;DHT22;35317;51.978;6.296;2023-07-28T10:08:10;22.50;99.90
49441;DHT22;35317;51.978;6.296;2023-07-28T10:13:20;22.90;99.90
49441;DHT22;35317;51.978;6.296;2023-07-28T10:18:21;23.10;99.90
49441;DHT22;35317;51.978;6.296;2023-07-28T10:23:25;23.20;99.70
49441;DHT22;35317;51.978;6.296;2023-07-28T10:28:34;23.40;99.10
49441;DHT22;35317;51.978;6.296;2023-07-28T12:11:54;26.40;90.80
49441;DHT22;35317;51.978;6.296;2023-07-28T12:24:28;26.30;88.70
49441;DHT22;35317;51.978;6.296;2023-07-28T12:49:18;26.60;88.40
49441;DHT22;35317;51.978;6.296;2023-07-28T12:54:23;27.10;86.50
49441;DHT22;35317;51.978;6.296;2023-07-28T12:59:24;27.40;85.60
49441;DHT22;35317;51.978;6.296;2023-07-28T13:04:25;27.50;86.80
49441;DHT22;35317;51.978;6.296;2023-07-28T13:09:28;27.70;84.40
49441;DHT22;35317;51.978;6.296;2023-07-28T13:14:34;27.90;83.70
49441;DHT22;35317;51.978;6.296;2023-07-28T13:19:34;28.20;82.30
49441;DHT22;35317;51.978;6.296;2023-07-28T13:24:35;28.50;80.90
49441;DHT22;35317;51.978;6.296;2023-07-28T13:29:36;28.50;79.50
49441;DHT22;35317;51.978;6.296;2023-07-28T13:34:37;28.50;78.20
49441;DHT22;35317;51.978;6.296;2023-07-28T13:39:38;28.50;78.50
49441;DHT22;35317;51.978;6.296;2023-07-28T13:44:39;28.50;78.30
49441;DHT22;35317;51.978;6.296;2023-07-28T13:49:39;28.30;77.40
49441;DHT22;35317;51.978;6.296;2023-07-28T13:54:40;28.30;76.70
49441;DHT22;35317;51.978;6.296;2023-07-28T13:59:41;28.20;77.20
49441;DHT22;35317;51.978;6.296;2023-07-28T14:04:42;28.10;77.50
49441;DHT22;35317;51.978;6.296;2023-07-28T14:09:42;27.90;77.70
49441;DHT22;35317;51.978;6.296;2023-07-28T14:14:43;27.60;77.90
49441;DHT22;35317;51.978;6.296;2023-07-28T14:19:44;27.50;78.70
49441;DHT22;35317;51.978;6.296;2023-07-28T14:24:45;27.60;77.60
49441;DHT22;35317;51.978;6.296;2023-07-28T14:29:46;27.60;77.20
49441;DHT22;35317;51.978;6.296;2023-07-28T14:34:46;27.80;76.90
49441;DHT22;35317;51.978;6.296;2023-07-28T14:39:47;27.90;76.10
49441;DHT22;35317;51.978;6.296;2023-07-28T14:44:50;27.70;75.60
49441;DHT22;35317;51.978;6.296;2023-07-28T14:49:51;27.50;76.60
49441;DHT22;35317;51.978;6.296;2023-07-28T14:54:52;27.40;76.70
49441;DHT22;35317;51.978;6.296;2023-07-28T14:59:52;27.20;77.50
49441;DHT22;35317;51.978;6.296;2023-07-28T15:04:53;27.10;77.70
49441;DHT22;35317;51.978;6.296;2023-07-28T15:09:54;27.00;78.10
49441;DHT22;35317;51.978;6.296;2023-07-28T15:14:55;27.00;78.30
49441;DHT22;35317;51.978;6.296;2023-07-28T15:19:55;27.00;78.40
49441;DHT22;35317;51.978;6.296;2023-07-28T15:24:56;27.10;78.00
49441;DHT22;35317;51.978;6.296;2023-07-28T15:29:57;27.10;78.10
49441;DHT22;35317;51.978;6.296;2023-07-28T15:34:58;27.10;78.80
49441;DHT22;35317;51.978;6.296;2023-07-28T15:39:59;27.10;78.10
49441;DHT22;35317;51.978;6.296;2023-07-28T15:44:59;27.20;78.00
49441;DHT22;35317;51.978;6.296;2023-07-28T15:50:00;27.10;78.50
49441;DHT22;35317;51.978;6.296;2023-07-28T15:55:01;27.10;78.70
49441;DHT22;35317;51.978;6.296;2023-07-28T16:00:04;26.90;78.30
49441;DHT22;35317;51.978;6.296;2023-07-28T16:05:06;26.80;78.40
49441;DHT22;35317;51.978;6.296;2023-07-28T16:10:07;26.90;78.70
49441;DHT22;35317;51.978;6.296;2023-07-28T16:15:09;27.20;78.40
49441;DHT22;35317;51.978;6.296;2023-07-28T16:20:10;27.40;77.70
49441;DHT22;35317;51.978;6.296;2023-07-28T16:25:11;27.40;78.20
49441;DHT22;35317;51.978;6.296;2023-07-28T16:30:12;27.20;77.90
49441;DHT22;35317;51.978;6.296;2023-07-28T16:35:13;27.00;78.80
49441;DHT22;35317;51.978;6.296;2023-07-28T16:40:14;26.80;79.10
49441;DHT22;35317;51.978;6.296;2023-07-28T16:45:15;26.70;80.00
49441;DHT22;35317;51.978;6.296;2023-07-28T16:50:15;26.70;80.90
49441;DHT22;35317;51.978;6.296;2023-07-28T16:55:16;26.60;80.70
49441;DHT22;35317;51.978;6.296;2023-07-28T17:00:17;26.50;81.10
49441;DHT22;35317;51.978;6.296;2023-07-28T17:05:18;26.20;81.70
49441;DHT22;35317;51.978;6.296;2023-07-28T17:10:19;25.90;82.60
49441;DHT22;35317;51.978;6.296;2023-07-28T17:15:20;25.80;83.00
49441;DHT22;35317;51.978;6.296;2023-07-28T17:20:20;25.70;83.40
49441;DHT22;35317;51.978;6.296;2023-07-28T17:25:21;25.70;83.00
49441;DHT22;35317;51.978;6.296;2023-07-28T17:30:22;25.60;82.90
49441;DHT22;35317;51.978;6.296;2023-07-28T17:35:23;25.60;83.10
49441;DHT22;35317;51.978;6.296;2023-07-28T17:40:24;25.50;83.20
49441;DHT22;35317;51.978;6.296;2023-07-28T17:45:24;25.40;83.10
49441;DHT22;35317;51.978;6.296;2023-07-28T17:50:25;25.30;83.60
49441;DHT22;35317;51.978;6.296;2023-07-28T17:55:26;25.30;84.00
49441;DHT22;35317;51.978;6.296;2023-07-28T18:00:27;25.20;84.40
49441;DHT22;35317;51.978;6.296;2023-07-28T18:05:28;24.90;84.80
49441;DHT22;35317;51.978;6.296;2023-07-28T18:10:29;24.70;85.20
49441;DHT22;35317;51.978;6.296;2023-07-28T18:15:30;24.50;86.20
49441;DHT22;35317;51.978;6.296;2023-07-28T18:20:31;24.30;87.00
49441;DHT22;35317;51.978;6.296;2023-07-28T18:25:32;24.00;88.50
49441;DHT22;35317;51.978;6.296;2023-07-28T18:30:33;23.70;88.20
49441;DHT22;35317;51.978;6.296;2023-07-28T18:35:34;23.50;88.70
49441;DHT22;35317;51.978;6.296;2023-07-28T18:40:35;23.30;89.30
49441;DHT22;35317;51.978;6.296;2023-07-28T18:45:35;23.20;90.10
49441;DHT22;35317;51.978;6.296;2023-07-28T18:50:36;23.10;90.20
49441;DHT22;35317;51.978;6.296;2023-07-28T18:55:40;23.00;90.40
49441;DHT22;35317;51.978;6.296;2023-07-28T19:00:41;23.00;90.40
49441;DHT22;35317;51.978;6.296;2023-07-28T19:05:42;22.80;90.50
49441;DHT22;35317;51.978;6.296;2023-07-28T19:10:45;22.80;90.70
49441;DHT22;35317;51.978;6.296;2023-07-28T19:15:46;22.70;90.80
49441;DHT22;35317;51.978;6.296;2023-07-28T19:20:47;22.60;91.10
49441;DHT22;35317;51.978;6.296;2023-07-28T19:25:48;22.40;91.30
49441;DHT22;35317;51.978;6.296;2023-07-28T19:30:49;22.20;91.60
49441;DHT22;35317;51.978;6.296;2023-07-28T19:35:50;22.10;91.90
49441;DHT22;35317;51.978;6.296;2023-07-28T19:40:52;22.00;92.30
49441;DHT22;35317;51.978;6.296;2023-07-28T19:45:53;21.80;92.50
49441;DHT22;35317;51.978;6.296;2023-07-28T19:50:54;21.60;92.90
49441;DHT22;35317;51.978;6.296;2023-07-28T19:55:56;21.50;93.30
49441;DHT22;35317;51.978;6.296;2023-07-28T20:00:57;21.30;93.60
49441;DHT22;35317;51.978;6.296;2023-07-28T20:05:58;21.20;94.00
49441;DHT22;35317;51.978;6.296;2023-07-28T20:10:59;21.00;94.40
49441;DHT22;35317;51.978;6.296;2023-07-28T20:16:00;20.90;94.80
49441;DHT22;35317;51.978;6.296;2023-07-28T20:21:01;20.70;95.10
49441;DHT22;35317;51.978;6.296;2023-07-28T20:26:07;20.60;95.50
49441;DHT22;35317;51.978;6.296;2023-07-28T20:31:15;20.50;95.80
49441;DHT22;35317;51.978;6.296;2023-07-28T20:36:16;20.30;96.10
49441;DHT22;35317;51.978;6.296;2023-07-28T20:41:17;20.20;96.50
49441;DHT22;35317;51.978;6.296;2023-07-28T20:46:19;20.10;96.80
49441;DHT22;35317;51.978;6.296;2023-07-28T20:51:20;20.00;97.10
49441;DHT22;35317;51.978;6.296;2023-07-28T20:56:46;19.90;97.50
49441;DHT22;35317;51.978;6.296;2023-07-28T21:01:47;19.90;97.80
49441;DHT22;35317;51.978;6.296;2023-07-28T21:06:51;19.90;98.10
49441;DHT22;35317;51.978;6.296;2023-07-28T21:18:09;19.90;98.60
49441;DHT22;35317;51.978;6.296;2023-07-28T21:23:10;20.00;98.80
49441;DHT22;35317;51.978;6.296;2023-07-28T21:28:11;20.10;99.00
49441;DHT22;35317;51.978;6.296;2023-07-28T21:33:12;20.10;99.10
49441;DHT22;35317;51.978;6.296;2023-07-28T21:38:13;20.10;99.30
49441;DHT22;35317;51.978;6.296;2023-07-28T21:43:14;20.10;99.50
49441;DHT22;35317;51.978;6.296;2023-07-28T21:48:15;20.20;99.50
49441;DHT22;35317;51.978;6.296;2023-07-28T21:53:15;20.20;99.60
49441;DHT22;35317;51.978;6.296;2023-07-28T21:58:16;20.20;99.70
49441;DHT22;35317;51.978;6.296;2023-07-28T22:03:17;20.30;99.70
49441;DHT22;35317;51.978;6.296;2023-07-28T22:08:27;20.30;99.90
49441;DHT22;35317;51.978;6.296;2023-07-28T22:13:36;20.30;99.80
49441;DHT22;35317;51.978;6.296;2023-07-28T22:18:37;20.20;99.90
49441;DHT22;35317;51.978;6.296;2023-07-28T22:23:48;20.20;99.90
49441;DHT22;35317;51.978;6.296;2023-07-28T22:28:48;20.10;99.90
49441;DHT22;35317;51.978;6.296;2023-07-28T22:33:59;20.00;99.90
49441;DHT22;35317;51.978;6.296;2023-07-28T22:39:10;20.00;99.90
49441;DHT22;35317;51.978;6.296;2023-07-28T22:44:12;20.00;99.90
49441;DHT22;35317;51.978;6.296;2023-07-28T22:49:13;19.90;99.90
49441;DHT22;35317;51.978;6.296;2023-07-28T22:54:13;19.90;99.90
49441;DHT22;35317;51.978;6.296;2023-07-28T22:59:14;19.80;99.90
49441;DHT22;35317;51.978;6.296;2023-07-28T23:04:15;19.80;99.90
49441;DHT22;35317;51.978;6.296;2023-07-28T23:09:16;19.80;99.90
49441;DHT22;35317;51.978;6.296;2023-07-28T23:14:17;19.70;99.90
49441;DHT22;35317;51.978;6.296;2023-07-28T23:19:18;19.60;99.90
49441;DHT22;35317;51.978;6.296;2023-07-28T23:24:18;19.50;99.90
49441;DHT22;35317;51.978;6.296;2023-07-28T23:29:19;19.40;99.90
49441;DHT22;35317;51.978;6.296;2023-07-28T23:34:20;19.40;99.90
49441;DHT22;35317;51.978;6.296;2023-07-28T23:39:22;19.30;99.90
49441;DHT22;35317;51.978;6.296;2023-07-28T23:44:24;19.30;99.90
49441;DHT22;35317;51.978;6.296;2023-07-28T23:49:25;19.20;99.90
49441;DHT22;35317;51.978;6.296;2023-07-28T23:54:25;19.10;99.90
49441;DHT22;35317;51.978;6.296;2023-07-28T23:59:27;19.10;99.90
